Time;durP1;ratioP1;P1;durP2;ratioP2;P2;SDS_P1;SDS_P2;PMS_P1;PMS_P2;Temp;Humidity;BMP_temperature;BMP_pressure;BME280_temperature;BME280_humidity;BME280_pressure;Samples;Min_cycle;Max_cycle;Signal;HPM_P1;HPM_P2
2022/09/27 00:01:42;;;;;;;37.05;22.95;;;;;;;10.21;98.45;99047.77;3530349;83;98791;-85
2022/09/27 00:06:44;;;;;;;32.93;22.35;;;;;;;10.28;99.06;99042.77;3530027;83;30308;-85
2022/09/27 00:11:46;;;;;;;29.43;20.37;;;;;;;10.31;99.18;99032.34;3506547;83;98865;-84
2022/09/27 00:16:47;;;;;;;28.52;19.85;;;;;;;10.33;98.92;99031.33;3521833;83;32259;-85
2022/09/27 00:21:49;;;;;;;30.90;20.47;;;;;;;10.34;98.59;99028.19;3526337;82;99102;-85
2022/09/27 00:26:50;;;;;;;27.73;18.67;;;;;;;10.35;98.36;99024.84;3534807;83;31735;-84
2022/09/27 00:31:51;;;;;;;29.03;18.30;;;;;;;10.29;98.25;99011.34;3538749;82;98965;-84
2022/09/27 00:36:54;;;;;;;23.37;16.77;;;;;;;10.28;98.02;99016.66;3534345;83;25947;-84
2022/09/27 00:41:56;;;;;;;26.52;16.75;;;;;;;10.26;97.60;99006.06;3534681;82;98935;-85
2022/09/27 00:47:21;;;;;;;28.07;17.27;;;;;;;10.21;97.41;99007.91;3534493;82;30335;-84
2022/09/27 00:52:51;;;;;;;26.15;16.15;;;;;;;10.20;97.18;99007.70;3507089;83;99120;-85
2022/09/27 00:57:52;;;;;;;25.92;17.62;;;;;;;10.07;97.14;98984.67;3528127;83;32210;-84
2022/09/27 01:02:56;;;;;;;25.03;16.87;;;;;;;10.06;97.00;98983.11;3519868;83;98910;-84
2022/09/27 01:07:59;;;;;;;25.92;17.15;;;;;;;10.00;96.95;98972.93;3513877;83;33165;-84
2022/09/27 01:13:12;;;;;;;26.00;17.50;;;;;;;9.92;97.16;98971.45;3495883;84;98844;-84
2022/09/27 01:18:27;;;;;;;27.20;18.48;;;;;;;9.82;97.37;98956.61;3510740;83;32193;-84
2022/09/27 01:23:48;;;;;;;24.00;17.03;;;;;;;9.82;97.37;98956.61;3491183;83;98700;-84
2022/09/27 01:29:10;;;;;;;26.45;17.80;;;;;;;9.78;97.09;98949.02;3514694;82;31678;-84
2022/09/27 01:34:43;;;;;;;25.02;17.07;;;;;;;9.73;97.27;98945.91;3501875;83;98465;-84
2022/09/27 01:39:53;;;;;;;25.77;16.87;;;;;;;9.69;97.32;98926.72;3515919;84;31614;-83
2022/09/27 01:45:14;;;;;;;27.58;19.55;;;;;;;9.64;97.35;98925.79;3506347;82;98620;-83
2022/09/27 01:50:32;;;;;;;28.27;18.35;;;;;;;9.59;97.64;98928.97;3488919;84;31191;-84
2022/09/27 01:55:37;;;;;;;27.37;18.33;;;;;;;9.52;97.70;98929.62;3496346;83;98183;-84
2022/09/27 02:00:41;;;;;;;24.45;16.67;;;;;;;9.49;97.87;98930.45;3511944;83;31047;-84
2022/09/27 02:05:47;;;;;;;24.75;18.00;;;;;;;9.46;98.18;98926.55;3517761;83;98301;-83
2022/09/27 02:10:50;;;;;;;;;;;;;;;9.44;98.33;98911.66;3513519;82;26542;-83
2022/09/27 02:15:59;;;;;;;26.45;17.25;;;;;;;9.41;99.37;98913.83;3496207;83;84321;-83
2022/09/27 02:21:04;;;;;;;28.62;18.12;;;;;;;9.38;99.16;98905.81;3442081;84;31165;-84
2022/09/27 02:26:29;;;;;;;26.90;17.15;;;;;;;9.42;99.34;98896.95;3498741;84;98529;-83
2022/09/27 02:31:30;;;;;;;28.57;17.73;;;;;;;9.44;99.54;98876.73;3479451;82;98720;-84
2022/09/27 02:36:31;;;;;;;28.23;17.33;;;;;;;9.48;100.00;98876.72;3506088;84;26779;-83
2022/09/27 02:41:32;;;;;;;29.32;18.57;;;;;;;9.52;100.00;98860.97;3508063;83;98844;-83
2022/09/27 02:47:21;;;;;;;27.40;17.23;;;;;;;9.58;100.00;98852.47;3512189;84;26452;-83
2022/09/27 02:53:06;;;;;;;21.68;15.18;;;;;;;9.63;100.00;98843.79;3490455;82;98512;-83
2022/09/27 02:58:31;;;;;;;29.42;18.17;;;;;;;9.70;100.00;98842.36;3507700;83;31243;-83
2022/09/27 03:03:38;;;;;;;25.70;17.12;;;;;;;9.75;100.00;98837.80;3499705;83;98618;-83
2022/09/27 03:08:40;;;;;;;26.80;16.73;;;;;;;9.80;100.00;98842.81;3511756;84;26657;-83
2022/09/27 03:13:43;;;;;;;31.83;17.80;;;;;;;9.85;100.00;98842.37;3509907;83;98847;-83
2022/09/27 03:18:44;;;;;;;27.13;17.87;;;;;;;9.87;99.74;98839.39;3500182;84;32288;-84
2022/09/27 03:23:45;;;;;;;24.27;15.60;;;;;;;9.88;100.00;98833.31;3511357;83;98363;-83
2022/09/27 03:28:46;;;;;;;26.00;15.70;;;;;;;9.88;99.97;98836.83;3501772;82;26517;-83
2022/09/27 03:33:48;;;;;;;23.87;14.57;;;;;;;9.89;100.00;98822.50;3508326;83;98343;-83
2022/09/27 03:38:49;;;;;;;24.73;16.77;;;;;;;9.90;100.00;98816.61;3492768;83;31058;-83
2022/09/27 03:43:50;;;;;;;23.27;15.00;;;;;;;9.94;100.00;98806.36;3504287;82;99019;-83
2022/09/27 03:48:51;;;;;;;22.87;14.27;;;;;;;9.97;100.00;98799.27;3517039;84;25754;-83
2022/09/27 03:53:53;;;;;;;25.70;15.87;;;;;;;10.00;100.00;98797.05;3502358;82;98844;-83
2022/09/27 03:58:54;;;;;;;28.97;16.60;;;;;;;10.05;100.00;98790.55;3522799;83;33073;-83
2022/09/27 04:03:55;;;;;;;25.87;16.30;;;;;;;10.11;100.00;98779.86;3519955;83;98928;-83
2022/09/27 04:08:56;;;;;;;26.77;16.43;;;;;;;10.15;100.00;98784.72;3523677;83;34809;-85
2022/09/27 04:14:04;;;;;;;25.70;15.73;;;;;;;10.16;100.00;98778.02;3527491;83;98892;-83
2022/09/27 04:19:06;;;;;;;26.65;16.30;;;;;;;10.17;100.00;98771.33;3503692;83;31442;-83
2022/09/27 04:24:07;;;;;;;27.15;16.00;;;;;;;10.18;100.00;98768.75;3502301;83;99087;-83
2022/09/27 04:29:09;;;;;;;25.77;16.37;;;;;;;10.17;100.00;98768.58;3517605;83;26135;-83
2022/09/27 04:34:10;;;;;;;34.10;20.23;;;;;;;10.16;100.00;98765.06;3525490;83;99120;-83
2022/09/27 04:39:11;;;;;;;30.97;18.43;;;;;;;10.15;100.00;98760.73;3532272;83;25845;-83
2022/09/27 04:44:12;;;;;;;25.00;16.33;;;;;;;10.15;100.00;98759.98;3464171;84;98799;-82
2022/09/27 04:49:13;;;;;;;24.73;16.37;;;;;;;10.13;100.00;98753.52;3421348;85;25817;-83
2022/09/27 04:54:15;;;;;;;28.60;17.93;;;;;;;10.14;100.00;98761.17;3440552;84;98854;-83
2022/09/27 04:59:16;;;;;;;25.73;16.33;;;;;;;10.11;100.00;98749.62;3432491;85;25972;-82
2022/09/27 05:04:17;;;;;;;24.97;14.33;;;;;;;10.11;100.00;98744.91;3398919;85;99004;-84
2022/09/27 05:09:18;;;;;;;22.57;15.43;;;;;;;10.12;100.00;98737.43;3409698;85;26402;-84
2022/09/27 05:14:20;;;;;;;22.77;13.70;;;;;;;10.12;100.00;98740.17;3411478;85;99432;-83
2022/09/27 05:19:21;;;;;;;24.73;16.00;;;;;;;10.13;100.00;98731.52;3418587;85;34983;-84
2022/09/27 05:24:22;;;;;;;23.93;14.90;;;;;;;10.17;100.00;98729.52;3416877;85;98951;-83
2022/09/27 05:29:23;;;;;;;23.40;15.53;;;;;;;10.22;100.00;98734.55;3438922;85;26530;-84
2022/09/27 05:34:24;;;;;;;23.40;15.17;;;;;;;10.27;100.00;98725.04;3416507;85;98917;-84
2022/09/27 05:39:26;;;;;;;25.40;14.60;;;;;;;10.34;100.00;98724.92;3409519;85;34883;-84
2022/09/27 05:44:27;;;;;;;24.83;16.60;;;;;;;10.42;100.00;98731.89;3435671;85;98869;-85
2022/09/27 05:49:28;;;;;;;46.33;20.53;;;;;;;10.48;100.00;98730.98;3418969;85;34848;-86
2022/09/27 05:54:29;;;;;;;32.78;17.48;;;;;;;10.56;100.00;98733.81;3431067;85;99257;-86
2022/09/27 05:59:31;;;;;;;29.77;17.10;;;;;;;10.63;100.00;98729.56;3432739;84;34871;-86
2022/09/27 06:04:32;;;;;;;26.73;16.33;;;;;;;10.69;100.00;98734.77;3425767;84;99074;-85
2022/09/27 06:09:33;;;;;;;35.00;17.63;;;;;;;10.76;100.00;98732.50;3431465;84;34948;-86
2022/09/27 06:14:34;;;;;;;63.50;22.77;;;;;;;10.81;100.00;98738.33;3431990;85;98887;-86
2022/09/27 06:19:37;;;;;;;30.27;18.77;;;;;;;10.87;100.00;98731.14;3443873;85;34849;-85
2022/09/27 06:24:38;;;;;;;27.03;17.97;;;;;;;10.94;100.00;98726.88;3423616;84;99456;-87
2022/09/27 06:29:39;;;;;;;28.60;17.93;;;;;;;11.01;100.00;98731.49;3436772;84;34854;-86
2022/09/27 06:34:40;;;;;;;33.17;18.37;;;;;;;11.07;100.00;98740.20;3426350;85;98704;-87
2022/09/27 06:39:41;;;;;;;31.63;18.50;;;;;;;11.14;100.00;98725.54;3444404;85;36169;-86
2022/09/27 06:44:43;;;;;;;32.77;18.83;;;;;;;11.20;100.00;98720.52;3429904;85;98733;-85
2022/09/27 06:49:44;;;;;;;26.50;17.50;;;;;;;11.29;100.00;98722.70;3436013;84;36002;-85
2022/09/27 06:54:46;;;;;;;29.57;18.67;;;;;;;11.36;100.00;98730.83;3439863;85;99120;-86
2022/09/27 07:05:09;;;;;;;41.10;20.23;;;;;;;11.46;100.00;98725.72;3513998;83;99091;-87
2022/09/27 07:10:11;;;;;;;37.20;21.52;;;;;;;11.55;100.00;98734.96;3525473;83;29795;-86
2022/09/27 07:15:12;;;;;;;57.20;23.53;;;;;;;11.55;100.00;98734.96;3515924;83;98911;-86
2022/09/27 07:20:14;;;;;;;34.30;19.30;;;;;;;11.61;100.00;98731.92;3521865;83;26507;-85
2022/09/27 07:25:15;;;;;;;31.17;19.82;;;;;;;11.68;100.00;98741.44;3524530;83;98790;-87
2022/09/27 07:30:16;;;;;;;31.30;19.37;;;;;;;11.77;100.00;98734.73;3511441;83;26627;-86
2022/09/27 07:35:17;;;;;;;34.33;20.53;;;;;;;11.89;100.00;98721.67;3516068;83;98972;-87
2022/09/27 07:40:19;;;;;;;37.87;21.73;;;;;;;12.05;100.00;98718.97;3516478;83;26640;-87
2022/09/27 07:45:21;;;;;;;29.17;17.77;;;;;;;12.23;100.00;98717.20;3508025;83;99000;-87
2022/09/27 07:50:22;;;;;;;28.50;18.70;;;;;;;12.34;100.00;98719.89;3530300;82;31883;-87
2022/09/27 07:55:24;;;;;;;26.83;16.87;;;;;;;12.48;100.00;98711.89;3514744;83;98866;-87
2022/09/27 08:00:25;;;;;;;27.50;17.57;;;;;;;12.49;99.74;98701.02;3516605;84;26312;-84
2022/09/27 08:05:27;;;;;;;26.97;15.98;;;;;;;12.56;99.36;98709.12;3507160;83;98655;-85
2022/09/27 08:10:30;;;;;;;26.43;16.87;;;;;;;12.66;99.51;98710.84;3523214;84;27243;-84
2022/09/27 08:15:41;;;;;;;24.07;15.45;;;;;;;12.73;98.73;98714.21;3507468;83;98493;-85
2022/09/27 08:20:39;;;;;;;25.57;15.55;;;;;;;12.81;98.12;98716.20;3528071;83;31644;-85
2022/09/27 08:25:41;;;;;;;22.43;14.17;;;;;;;12.84;97.59;98709.79;3517099;83;98665;-84
2022/09/27 08:30:42;;;;;;;24.70;15.03;;;;;;;12.89;97.13;98716.17;3512346;83;26889;-85
2022/09/27 08:35:43;;;;;;;22.70;13.07;;;;;;;12.99;96.96;98713.77;3517080;83;98822;-83
2022/09/27 08:41:01;;;;;;;27.40;15.20;;;;;;;13.09;96.51;98714.87;3512771;84;25907;-84
2022/09/27 08:46:23;;;;;;;24.52;13.62;;;;;;;13.17;95.98;98718.22;3519779;83;98583;-84
2022/09/27 08:51:29;;;;;;;19.63;13.43;;;;;;;13.24;95.70;98720.19;3498629;83;98728;-84
2022/09/27 08:56:31;;;;;;;20.95;11.93;;;;;;;13.32;95.21;98716.04;3517640;83;31856;-84
2022/09/27 09:01:34;;;;;;;18.73;11.35;;;;;;;13.41;95.06;98708.50;3496297;82;99118;-84
2022/09/27 09:07:08;;;;;;;18.40;11.70;;;;;;;13.55;94.75;98701.97;3510856;82;32368;-84
2022/09/27 09:18:09;;;;;;;19.87;11.12;;;;;;;13.87;93.33;98701.82;3525265;82;31637;-84
2022/09/27 09:23:31;;;;;;;20.00;10.63;;;;;;;14.04;92.92;98712.17;3499813;83;98817;-82
2022/09/27 09:29:13;;;;;;;54.95;13.98;;;;;;;14.30;92.73;98706.27;3519938;82;31701;-82
2022/09/27 09:34:29;;;;;;;53.87;14.58;;;;;;;14.56;91.25;98711.17;3504210;82;99256;-83
2022/09/27 09:39:44;;;;;;;20.57;9.95;;;;;;;14.86;91.35;98707.19;3512606;84;31690;-84
2022/09/27 09:45:00;;;;;;;19.25;9.48;;;;;;;15.23;90.32;98703.53;3509518;83;98420;-84
2022/09/27 09:50:05;;;;;;;30.50;11.97;;;;;;;15.63;88.94;98706.46;3507600;84;25914;-83
2022/09/27 09:55:23;;;;;;;17.65;10.25;;;;;;;15.98;87.71;98712.84;3482640;84;99016;-84
2022/09/27 10:00:24;;;;;;;41.92;12.20;;;;;;;16.25;86.35;98711.60;3507855;82;31667;-83
2022/09/27 10:05:28;;;;;;;18.40;10.80;;;;;;;16.52;86.00;98713.77;3507167;82;98923;-85
2022/09/27 10:10:29;;;;;;;26.85;10.98;;;;;;;16.85;84.61;98714.78;3505076;84;31696;-83
2022/09/27 10:15:31;;;;;;;18.07;9.35;;;;;;;17.01;83.33;98709.70;3497458;83;99144;-84
2022/09/27 10:20:36;;;;;;;45.35;13.10;;;;;;;17.18;81.79;98715.16;3513166;84;31630;-84
2022/09/27 10:25:51;;;;;;;46.85;14.43;;;;;;;17.23;81.19;98710.34;3513475;83;98528;-83
2022/09/27 10:30:59;;;;;;;13.18;7.97;;;;;;;17.21;80.42;98703.70;3500121;82;32284;-85
2022/09/27 10:36:01;;;;;;;13.65;8.55;;;;;;;17.24;79.84;98704.96;3495454;83;98468;-82
2022/09/27 10:41:34;;;;;;;19.25;8.53;;;;;;;17.16;79.46;98695.36;3514521;82;31674;-84
2022/09/27 10:46:35;;;;;;;14.43;7.75;;;;;;;17.12;79.22;98698.15;3527353;82;26002;-85
2022/09/27 10:51:36;;;;;;;26.53;10.30;;;;;;;17.05;78.35;98695.05;3484442;83;98650;-85
2022/09/27 10:56:38;;;;;;;18.20;8.57;;;;;;;16.98;78.54;98698.73;3525678;82;29812;-86
2022/09/27 11:01:47;;;;;;;15.83;9.15;;;;;;;16.90;78.96;98699.65;3511647;83;98633;-86
2022/09/27 11:06:48;;;;;;;13.43;8.25;;;;;;;16.84;79.28;98692.41;3521921;84;31636;-85
2022/09/27 11:11:50;;;;;;;14.87;8.83;;;;;;;16.81;79.70;98680.81;3500477;83;98768;-86
2022/09/27 11:17:08;;;;;;;19.32;9.78;;;;;;;16.66;80.45;98682.02;3498839;83;32916;-85
2022/09/27 11:22:53;;;;;;;13.53;9.38;;;;;;;16.55;80.82;98683.06;3504999;84;98565;-85
2022/09/27 11:28:32;;;;;;;14.40;9.88;;;;;;;16.40;81.38;98674.39;3520996;84;31939;-84
2022/09/27 11:33:59;;;;;;;16.12;10.40;;;;;;;16.35;82.00;98675.72;3490025;83;98840;-87
2022/09/27 11:39:15;;;;;;;16.65;11.05;;;;;;;16.24;82.12;98667.04;3506664;84;31683;-87
2022/09/27 11:44:45;;;;;;;16.53;11.37;;;;;;;16.17;82.22;98656.83;3505869;83;98745;-85
2022/09/27 11:50:18;;;;;;;126.20;24.77;;;;;;;16.07;82.27;98646.94;3501307;82;31611;-85
2022/09/27 11:55:30;;;;;;;53.33;17.67;;;;;;;15.95;82.50;98649.96;3493276;84;98680;-86
2022/09/27 12:00:51;;;;;;;20.27;11.43;;;;;;;15.88;82.96;98647.47;3520093;84;31662;-85
2022/09/27 12:06:10;;;;;;;47.30;15.85;;;;;;;15.86;82.92;98648.52;3520768;83;98551;-83
2022/09/27 12:11:34;;;;;;;26.62;12.07;;;;;;;15.82;82.81;98642.95;3519119;83;32210;-85
2022/09/27 12:16:38;;;;;;;26.95;14.33;;;;;;;15.76;82.91;98642.01;3522271;84;32172;-86
2022/09/27 12:21:41;;;;;;;154.03;28.92;;;;;;;15.73;82.61;98636.75;3505160;83;98687;-86
2022/09/27 12:26:44;;;;;;;113.10;25.77;;;;;;;15.67;83.10;98637.19;3520123;84;31651;-86
2022/09/27 12:32:21;;;;;;;58.98;20.30;;;;;;;15.60;83.28;98639.45;3510565;83;99264;-84
2022/09/27 12:37:33;;;;;;;105.12;21.20;;;;;;;15.55;83.33;98636.66;3511029;84;25882;-85
2022/09/27 12:42:45;;;;;;;38.05;14.60;;;;;;;15.46;83.56;98631.05;3509685;82;99306;-86
2022/09/27 12:48:25;;;;;;;33.65;14.75;;;;;;;15.51;83.73;98629.08;3518460;84;31714;-89
2022/09/27 12:53:48;;;;;;;18.15;12.35;;;;;;;15.58;84.06;98633.59;3510299;83;98642;-88
2022/09/27 12:58:57;;;;;;;21.20;12.85;;;;;;;15.50;83.75;98614.27;3519943;83;32157;-86
2022/09/27 13:04:42;;;;;;;16.93;11.40;;;;;;;15.43;83.68;98618.70;3516762;83;99040;-86
2022/09/27 13:10:06;;;;;;;19.35;13.03;;;;;;;15.39;83.88;98622.22;3520524;84;31727;-86
2022/09/27 13:15:33;;;;;;;20.37;12.10;;;;;;;15.40;84.18;98607.13;3508784;82;98710;-85
2022/09/27 13:20:41;;;;;;;17.55;10.45;;;;;;;15.26;84.20;98598.69;3521604;83;31761;-86
2022/09/27 13:26:03;;;;;;;16.85;10.80;;;;;;;15.29;84.66;98598.41;3508864;82;98982;-85
2022/09/27 13:31:10;;;;;;;16.52;10.43;;;;;;;15.25;84.26;98596.37;3516479;82;31628;-85
2022/09/27 13:36:28;;;;;;;18.15;10.75;;;;;;;15.17;84.01;98590.34;3491784;84;98565;-85
2022/09/27 13:41:52;;;;;;;16.15;9.65;;;;;;;15.07;84.24;98579.02;3507461;82;98748;-85
2022/09/27 13:47:31;;;;;;;18.37;11.38;;;;;;;15.10;84.25;98585.66;3509961;83;32739;-84
2022/09/27 13:52:37;;;;;;;20.85;12.63;;;;;;;15.03;84.26;98580.36;3505408;84;99141;-85
2022/09/27 13:57:53;;;;;;;23.27;11.30;;;;;;;15.08;84.48;98586.11;3526602;82;26197;-86
2022/09/27 14:03:09;;;;;;;15.83;10.20;;;;;;;15.08;84.59;98592.25;3521781;83;98681;-85
2022/09/27 14:08:35;;;;;;;17.17;10.70;;;;;;;15.08;84.62;98594.42;3515193;82;26012;-84
2022/09/27 14:13:38;;;;;;;18.80;11.45;;;;;;;15.04;84.74;98593.77;3510394;83;98815;-85
2022/09/27 14:18:44;;;;;;;20.10;11.05;;;;;;;15.07;84.96;98585.16;3540193;83;31653;-85
2022/09/27 14:23:45;;;;;;;15.63;10.08;;;;;;;15.07;84.92;98588.72;3526153;82;98648;-85
2022/09/27 14:28:46;;;;;;;18.00;10.80;;;;;;;14.80;84.95;98548.36;3526880;83;27919;-85
2022/09/27 14:33:48;;;;;;;20.40;13.90;;;;;;;15.06;85.17;98582.23;3530173;83;98770;-85
2022/09/27 14:38:49;;;;;;;15.80;10.35;;;;;;;15.03;85.27;98575.59;3535330;82;27937;-87
2022/09/27 14:43:50;;;;;;;15.17;9.97;;;;;;;14.99;85.40;98582.50;3524722;83;98873;-86
2022/09/27 14:48:52;;;;;;;18.67;11.13;;;;;;;14.93;85.59;98570.46;3529787;82;26559;-87
2022/09/27 14:53:59;;;;;;;16.90;9.60;;;;;;;14.89;85.70;98572.57;3502392;83;99041;-86
2022/09/27 14:59:16;;;;;;;16.15;9.88;;;;;;;14.80;85.93;98569.13;3522973;83;32284;-85
2022/09/27 15:04:19;;;;;;;15.43;10.07;;;;;;;14.75;86.11;98565.54;3515995;83;98631;-86
2022/09/27 15:09:21;;;;;;;14.65;8.83;;;;;;;14.77;86.32;98576.93;3514139;84;32290;-86
2022/09/27 15:14:24;;;;;;;14.60;8.63;;;;;;;14.70;86.43;98570.87;3493154;83;98617;-84
2022/09/27 15:19:28;;;;;;;12.50;8.18;;;;;;;14.70;86.56;98569.48;3526729;82;31607;-85
2022/09/27 15:24:44;;;;;;;15.85;8.98;;;;;;;14.67;86.59;98569.77;3506063;83;98733;-85
2022/09/27 15:29:55;;;;;;;16.62;9.25;;;;;;;14.67;86.63;98569.01;3516036;82;32946;-86
2022/09/27 15:35:00;;;;;;;14.45;8.90;;;;;;;14.60;86.86;98567.87;3484425;82;98356;-86
2022/09/27 15:40:46;;;;;;;17.02;9.98;;;;;;;14.57;87.00;98573.70;3524322;82;31707;-85
2022/09/27 15:45:52;;;;;;;15.10;9.33;;;;;;;14.53;87.06;98578.58;3510725;82;98503;-87
2022/09/27 15:50:53;;;;;;;;;;;;;;;14.49;87.05;98576.53;3532090;84;26140;-85
2022/09/27 15:55:54;;;;;;;13.20;8.13;;;;;;;14.41;87.33;98579.98;3519733;82;84294;-85
2022/09/27 16:01:07;;;;;;;13.70;8.33;;;;;;;14.34;87.24;98581.62;3513358;82;26003;-84
2022/09/27 16:06:11;;;;;;;16.87;9.55;;;;;;;14.27;87.45;98581.23;3490914;82;98603;-85
2022/09/27 16:11:14;;;;;;;16.52;10.50;;;;;;;14.23;87.75;98585.34;3479537;84;32806;-86
2022/09/27 16:16:18;;;;;;;17.95;10.32;;;;;;;14.19;87.97;98586.03;3507480;83;31744;-86
2022/09/27 16:21:19;;;;;;;19.53;10.50;;;;;;;14.13;88.34;98582.28;3510665;82;102508;-85
2022/09/27 16:26:20;;;;;;;18.77;10.40;;;;;;;14.07;88.56;98588.22;3509076;84;26392;-86
2022/09/27 16:31:21;;;;;;;15.00;8.20;;;;;;;14.04;88.66;98594.62;3502033;83;99038;-86
2022/09/27 16:36:22;;;;;;;17.10;10.53;;;;;;;13.99;88.72;98586.28;3504864;83;26584;-85
2022/09/27 16:41:23;;;;;;;16.77;10.10;;;;;;;13.91;89.10;98583.56;3504335;83;98890;-85
2022/09/27 16:46:24;;;;;;;18.87;10.40;;;;;;;13.87;89.38;98584.90;3511503;84;26521;-84
2022/09/27 16:56:47;;;;;;;23.20;13.35;;;;;;;13.79;89.78;98586.35;3506518;82;31732;-85
2022/09/27 17:01:49;;;;;;;10.13;5.05;;;;;;;13.71;90.71;98632.79;3506435;83;98880;-88
2022/09/27 17:06:55;;;;;;;8.15;3.40;;;;;;;13.41;89.69;98623.60;3517375;84;31764;-85
2022/09/27 17:11:55;;;;;;;9.65;3.52;;;;;;;13.12;89.40;98617.34;3510691;82;99051;-84
2022/09/27 17:16:56;;;;;;;19.00;9.43;;;;;;;12.91;89.76;98628.19;3526413;82;31743;-83
2022/09/27 17:21:57;;;;;;;13.28;4.97;;;;;;;12.83;89.76;98637.85;3504854;82;98574;-85
2022/09/27 17:26:58;;;;;;;9.57;4.30;;;;;;;12.61;90.25;98636.86;3525293;82;26032;-84
2022/09/27 17:31:59;;;;;;;9.37;4.40;;;;;;;12.42;90.94;98631.61;3515838;82;98410;-84
2022/09/27 17:37:00;;;;;;;7.87;3.83;;;;;;;12.36;91.16;98634.72;3509476;82;26010;-84
2022/09/27 17:42:10;;;;;;;9.23;4.53;;;;;;;12.26;91.67;98628.09;3510489;83;98458;-84
2022/09/27 17:52:25;;;;;;;12.60;6.25;;;;;;;11.97;92.24;98613.41;3516241;83;98587;-84
2022/09/27 17:57:26;;;;;;;13.00;6.75;;;;;;;11.99;92.76;98648.23;3523832;83;30562;-83
2022/09/27 18:02:27;;;;;;;15.00;7.27;;;;;;;11.97;93.00;98651.42;3503509;83;98954;-83
2022/09/27 18:07:28;;;;;;;13.10;7.30;;;;;;;11.98;93.00;98644.70;3503874;84;26525;-84
2022/09/27 18:12:33;;;;;;;17.27;8.90;;;;;;;11.95;93.48;98650.30;3498305;83;98938;-84
2022/09/27 18:17:36;;;;;;;21.60;12.07;;;;;;;11.97;93.35;98656.14;3509103;84;29833;-83
2022/09/27 18:22:37;;;;;;;19.37;11.27;;;;;;;11.87;93.72;98660.70;3511567;83;98744;-84
2022/09/27 18:27:39;;;;;;;16.32;9.50;;;;;;;11.79;93.99;98671.72;3505135;84;31688;-84
2022/09/27 18:32:40;;;;;;;16.67;8.73;;;;;;;11.69;94.17;98664.45;3490145;84;98540;-84
2022/09/27 18:37:41;;;;;;;15.37;8.87;;;;;;;11.71;94.28;98672.27;3515853;83;25940;-84
2022/09/27 18:42:42;;;;;;;19.27;10.03;;;;;;;11.71;94.23;98675.03;3493510;83;98736;-84
2022/09/27 18:47:43;;;;;;;16.80;9.33;;;;;;;11.72;94.49;98689.77;3510475;82;30126;-85
2022/09/27 18:52:44;;;;;;;16.17;8.83;;;;;;;11.68;95.03;98687.70;3500112;83;98835;-83
2022/09/27 18:57:45;;;;;;;14.83;8.47;;;;;;;11.68;95.05;98684.16;3506269;84;34910;-83
2022/09/27 19:02:48;;;;;;;16.30;9.33;;;;;;;11.64;95.32;98685.62;3494545;84;98437;-83
2022/09/27 19:07:49;;;;;;;17.23;9.23;;;;;;;11.62;95.63;98688.63;3510846;83;26585;-83
2022/09/27 19:12:54;;;;;;;15.03;8.63;;;;;;;11.54;96.01;98690.72;3509945;83;98662;-84
2022/09/27 19:17:54;;;;;;;13.95;8.33;;;;;;;11.48;96.70;98696.55;3518964;84;31674;-84
2022/09/27 19:22:55;;;;;;;16.05;10.23;;;;;;;11.41;97.06;98696.70;3503437;83;98782;-83
2022/09/27 19:27:56;;;;;;;16.75;9.93;;;;;;;11.37;97.32;98694.61;3501419;84;31733;-84
2022/09/27 19:32:58;;;;;;;19.77;11.33;;;;;;;11.33;97.69;98695.27;3494314;84;98698;-83
2022/09/27 19:37:58;;;;;;;21.37;12.30;;;;;;;11.28;98.11;98697.13;3503215;84;26785;-84
2022/09/27 19:42:59;;;;;;;20.23;10.87;;;;;;;11.25;98.49;98703.50;3499854;83;99212;-83
2022/09/27 19:48:01;;;;;;;21.87;11.43;;;;;;;11.23;98.72;98714.14;3488694;83;25811;-83
2022/09/27 19:53:02;;;;;;;19.37;11.83;;;;;;;11.22;98.85;98719.48;3490322;83;98744;-84
2022/09/27 19:58:03;;;;;;;19.77;11.10;;;;;;;11.20;99.11;98728.77;3505135;84;34891;-83
2022/09/27 20:03:04;;;;;;;20.70;11.93;;;;;;;11.20;99.31;98722.48;3510487;83;98828;-84
2022/09/27 20:08:08;;;;;;;18.47;10.90;;;;;;;11.22;99.47;98721.44;3519026;82;34894;-84
2022/09/27 20:13:09;;;;;;;16.50;10.47;;;;;;;11.22;99.44;98718.69;3513148;83;98806;-83
2022/09/27 20:18:10;;;;;;;20.87;10.03;;;;;;;11.23;99.32;98723.78;3502107;84;25870;-83
2022/09/27 20:23:11;;;;;;;17.77;7.97;;;;;;;11.21;99.61;98724.81;3500139;83;98686;-84
2022/09/27 20:28:12;;;;;;;13.37;7.93;;;;;;;11.19;99.52;98729.19;3509593;82;25958;-85
2022/09/27 20:38:33;;;;;;;11.25;6.35;;;;;;;11.15;99.73;98734.77;3501013;82;31673;-83
2022/09/27 20:43:35;;;;;;;13.48;6.95;;;;;;;11.15;99.83;98731.22;3507795;82;98848;-85
2022/09/27 20:48:37;;;;;;;11.07;5.87;;;;;;;11.14;99.76;98729.67;3526938;83;25943;-85
2022/09/27 20:53:38;;;;;;;11.83;5.55;;;;;;;11.16;100.00;98728.64;3518126;83;98844;-85
2022/09/27 20:58:39;;;;;;;17.23;8.77;;;;;;;11.16;99.92;98732.77;3522840;83;26010;-84
2022/09/27 21:03:40;;;;;;;15.00;8.77;;;;;;;11.16;100.00;98736.90;3554086;82;98786;-84
2022/09/27 21:08:42;;;;;;;14.27;8.37;;;;;;;11.14;100.00;98729.08;3576358;81;25833;-85
2022/09/27 21:13:44;;;;;;;15.43;9.10;;;;;;;11.15;100.00;98732.01;3568305;81;98854;-84
2022/09/27 21:18:49;;;;;;;13.13;8.35;;;;;;;11.14;100.00;98743.44;3543486;82;30558;-86
2022/09/27 21:23:57;;;;;;;15.93;9.33;;;;;;;11.10;100.00;98742.72;3565071;82;99005;-83
2022/09/27 21:34:33;;;;;;;14.58;8.75;;;;;;;11.07;100.00;98743.57;3398323;82;99073;-85
2022/09/27 21:39:34;;;;;;;15.30;9.43;;;;;;;11.05;100.00;98747.33;3557280;81;25801;-83
2022/09/27 21:44:35;;;;;;;16.87;8.90;;;;;;;11.05;100.00;98754.20;3559799;81;98553;-84
2022/09/27 21:49:36;;;;;;;15.80;8.57;;;;;;;11.05;100.00;98755.58;3562747;81;25879;-83
2022/09/27 21:54:37;;;;;;;13.83;8.77;;;;;;;11.04;100.00;98751.28;3566333;81;98597;-84
2022/09/27 21:59:38;;;;;;;16.70;9.90;;;;;;;11.05;100.00;98754.20;3579616;82;34838;-85
2022/09/27 22:04:38;;;;;;;14.75;9.18;;;;;;;11.04;100.00;98755.41;3547559;82;98923;-84
2022/09/27 22:09:39;;;;;;;13.30;7.45;;;;;;;11.02;100.00;98759.19;3525457;82;34849;-84
2022/09/27 22:14:40;;;;;;;13.48;7.08;;;;;;;10.94;100.00;98753.61;3537264;82;98757;-84
2022/09/27 22:19:41;;;;;;;12.33;6.90;;;;;;;10.90;100.00;98749.55;3535619;82;27106;-85
2022/09/27 22:24:42;;;;;;;11.13;6.53;;;;;;;10.90;100.00;98744.66;3527064;82;98518;-85
2022/09/27 22:29:43;;;;;;;10.88;6.47;;;;;;;10.88;99.98;98743.70;3532860;82;25863;-84
2022/09/27 22:41:01;;;;;;;12.73;6.50;;;;;;;10.80;99.72;98742.86;3537185;83;34849;-84
2022/09/27 22:46:02;;;;;;;11.45;5.60;;;;;;;10.70;99.82;98751.48;3537426;83;98324;-84
2022/09/27 22:51:04;;;;;;;9.77;4.90;;;;;;;10.64;100.00;98757.86;3531721;83;26289;-84
2022/09/27 22:56:12;;;;;;;10.27;5.30;;;;;;;10.57;100.00;98760.13;3524994;81;98603;-84
2022/09/27 23:01:18;;;;;;;11.03;4.67;;;;;;;10.51;100.00;98748.63;3540383;81;98775;-85
2022/09/27 23:06:20;;;;;;;;;;;;;;;10.45;100.00;98757.95;3495267;83;25822;-83
2022/09/27 23:11:21;;;;;;;11.37;4.80;;;;;;;10.39;100.00;98759.63;3479034;83;94387;-83
2022/09/27 23:16:25;;;;;;;9.57;4.57;;;;;;;10.33;99.83;98768.16;3545764;82;28610;-83
2022/09/27 23:21:27;;;;;;;8.80;4.40;;;;;;;10.30;99.92;98769.59;3542254;82;98414;-83
2022/09/27 23:26:28;;;;;;;9.23;4.45;;;;;;;10.23;99.69;98769.67;3545194;82;35333;-83
2022/09/27 23:31:31;;;;;;;8.30;4.10;;;;;;;10.14;99.56;98766.67;3541762;82;98381;-83
2022/09/27 23:36:33;;;;;;;9.45;3.75;;;;;;;10.08;99.79;98773.83;3544252;82;34765;-83
2022/09/27 23:41:34;;;;;;;9.93;4.45;;;;;;;9.99;99.33;98767.44;3545528;82;98285;-83
2022/09/27 23:46:36;;;;;;;10.37;5.23;;;;;;;9.97;99.48;98767.05;3544405;81;27746;-84
2022/09/27 23:51:36;;;;;;;11.67;5.50;;;;;;;9.93;99.41;98765.55;3528040;82;98595;-84
2022/09/27 23:56:37;;;;;;;10.13;4.45;;;;;;;9.84;99.42;98766.05;3541781;82;25963;-84
